Time;durP1;ratioP1;P1;durP2;ratioP2;P2;SDS_P1;SDS_P2;PMS_P1;PMS_P2;Temp;Humidity;BMP_temperature;BMP_pressure;BME280_temperature;BME280_humidity;BME280_pressure;Samples;Min_cycle;Max_cycle;Signal;HPM_P1;HPM_P2
2023/03/16 00:00:12;;;;;;;7.55;2.80;;;;;;;;;;5089500;28;20063;-59
2023/03/16 00:02:39;;;;;;;5.47;2.35;;;;;;;;;;5089639;28;20129;-58
2023/03/16 00:05:05;;;;;;;6.00;2.50;;;;;;;;;;5088000;28;20055;-59
2023/03/16 00:07:31;;;;;;;10.77;3.25;;;;;;;;;;5089618;28;20059;-59
2023/03/16 00:09:57;;;;;;;6.32;2.60;;;;;;;;;;5089387;28;20448;-59
2023/03/16 00:12:24;;;;;;;7.80;2.63;;;;;;;;;;5088438;28;20036;-59
2023/03/16 00:14:50;;;;;;;10.35;3.00;;;;;;;;;;5089600;28;20043;-59
2023/03/16 00:17:20;;;;;;;6.70;2.55;;;;;;;;;;5090341;28;20068;-59
2023/03/16 00:19:53;;;;;;;7.72;3.25;;;;;;;;;;5093058;28;20039;-59
2023/03/16 00:22:20;;;;;;;7.30;2.63;;;;;;;;;;5093301;28;20056;-59
2023/03/16 00:24:46;;;;;;;9.77;3.15;;;;;;;;;;5093753;28;20063;-59
2023/03/16 00:27:16;;;;;;;4.28;2.70;;;;;;;;;;5074192;28;20041;-59
2023/03/16 00:29:46;;;;;;;9.15;2.83;;;;;;;;;;5073258;28;20068;-59
2023/03/16 00:32:16;;;;;;;6.57;2.75;;;;;;;;;;5072929;28;20119;-59
2023/03/16 00:34:42;;;;;;;6.03;2.72;;;;;;;;;;5072323;28;20047;-59
2023/03/16 00:37:09;;;;;;;5.63;2.75;;;;;;;;;;5073375;28;20465;-59
2023/03/16 00:39:35;;;;;;;4.80;2.40;;;;;;;;;;5072983;28;20401;-59
2023/03/16 00:42:02;;;;;;;6.00;2.50;;;;;;;;;;5054186;28;20048;-59
2023/03/16 00:44:28;;;;;;;14.27;3.00;;;;;;;;;;5072872;28;20101;-59
2023/03/16 00:46:53;;;;;;;8.18;3.03;;;;;;;;;;5073621;28;20040;-58
2023/03/16 00:49:21;;;;;;;8.50;3.00;;;;;;;;;;5092338;28;20036;-59
2023/03/16 00:51:47;;;;;;;7.07;3.13;;;;;;;;;;5093221;28;20443;-59
2023/03/16 00:54:13;;;;;;;10.45;3.20;;;;;;;;;;5093052;28;20047;-58
2023/03/16 00:56:39;;;;;;;10.30;2.90;;;;;;;;;;5092546;28;20119;-59
2023/03/16 00:59:05;;;;;;;8.68;3.75;;;;;;;;;;5092654;28;20071;-59
2023/03/16 01:01:34;;;;;;;10.52;3.50;;;;;;;;;;5092824;28;20129;-58
2023/03/16 01:04:00;;;;;;;5.60;3.40;;;;;;;;;;5092469;28;20100;-59
2023/03/16 01:06:27;;;;;;;8.77;3.65;;;;;;;;;;5092587;28;20044;-59
2023/03/16 01:08:52;;;;;;;8.40;3.65;;;;;;;;;;5092664;28;20040;-59
2023/03/16 01:11:20;;;;;;;12.15;3.40;;;;;;;;;;5092293;28;20063;-59
2023/03/16 01:13:47;;;;;;;8.27;3.20;;;;;;;;;;5093051;28;20040;-59
2023/03/16 01:16:14;;;;;;;7.93;3.30;;;;;;;;;;5092524;28;20048;-59
2023/03/16 01:18:40;;;;;;;7.95;3.33;;;;;;;;;;5092069;28;20040;-59
2023/03/16 01:21:07;;;;;;;8.93;3.80;;;;;;;;;;5092898;28;20119;-59
2023/03/16 01:23:34;;;;;;;8.05;4.13;;;;;;;;;;5092572;28;20067;-58
2023/03/16 01:26:00;;;;;;;9.52;3.35;;;;;;;;;;5083297;28;20504;-59
2023/03/16 01:28:28;;;;;;;7.40;3.30;;;;;;;;;;5071856;28;20044;-59
2023/03/16 01:30:56;;;;;;;8.48;3.83;;;;;;;;;;5072003;28;20037;-59
2023/03/16 01:33:22;;;;;;;8.68;3.75;;;;;;;;;;5071337;28;20098;-59
2023/03/16 01:35:55;;;;;;;13.23;3.38;;;;;;;;;;5072072;28;20046;-59
2023/03/16 01:38:22;;;;;;;12.93;3.70;;;;;;;;;;5072031;28;20501;-59
2023/03/16 01:40:52;;;;;;;5.90;3.45;;;;;;;;;;5053103;28;20046;-59
2023/03/16 01:43:19;;;;;;;6.95;3.50;;;;;;;;;;5053980;28;20076;-59
2023/03/16 01:46:03;;;;;;;6.90;3.58;;;;;;;;;;5071405;28;20043;-58
2023/03/16 01:48:48;;;;;;;9.20;4.03;;;;;;;;;;5085127;28;20330;-59
2023/03/16 01:51:20;;;;;;;11.35;4.13;;;;;;;;;;5092015;28;20036;-59
2023/03/16 01:53:47;;;;;;;9.73;3.92;;;;;;;;;;5091993;28;20036;-59
2023/03/16 01:56:15;;;;;;;8.85;4.03;;;;;;;;;;5091332;28;20501;-59
2023/03/16 01:58:42;;;;;;;13.20;4.22;;;;;;;;;;5091737;28;20405;-59
2023/03/16 02:01:08;;;;;;;10.43;4.47;;;;;;;;;;5091492;28;20062;-59
2023/03/16 02:03:34;;;;;;;12.02;4.57;;;;;;;;;;5091188;28;20252;-59
2023/03/16 02:06:04;;;;;;;12.05;4.22;;;;;;;;;;5091768;28;20129;-58
2023/03/16 02:08:30;;;;;;;9.05;4.25;;;;;;;;;;5091575;28;20032;-58
2023/03/16 02:10:56;;;;;;;10.00;4.05;;;;;;;;;;5090905;28;20124;-59
2023/03/16 02:13:23;;;;;;;9.93;4.43;;;;;;;;;;5091567;28;20074;-59
2023/03/16 02:15:50;;;;;;;12.73;4.68;;;;;;;;;;5091435;28;20565;-59
2023/03/16 02:18:16;;;;;;;11.00;4.32;;;;;;;;;;5090907;28;20040;-59
2023/03/16 02:20:46;;;;;;;9.35;4.50;;;;;;;;;;5091186;28;20046;-58
2023/03/16 02:23:17;;;;;;;9.77;4.53;;;;;;;;;;5090776;28;20051;-59
2023/03/16 02:25:43;;;;;;;13.13;5.03;;;;;;;;;;5076643;28;20077;-58
2023/03/16 02:28:28;;;;;;;11.68;4.13;;;;;;;;;;5091355;28;20036;-59
2023/03/16 02:30:54;;;;;;;11.25;4.50;;;;;;;;;;5090788;28;20040;-59
2023/03/16 02:33:20;;;;;;;9.00;4.95;;;;;;;;;;5090537;28;20417;-58
2023/03/16 02:35:46;;;;;;;7.38;4.30;;;;;;;;;;5090908;28;20072;-59
2023/03/16 02:38:12;;;;;;;8.88;4.55;;;;;;;;;;5090986;28;20063;-59
2023/03/16 02:40:38;;;;;;;9.90;4.03;;;;;;;;;;5089302;28;20044;-59
2023/03/16 02:43:09;;;;;;;7.05;4.15;;;;;;;;;;5090902;28;20536;-59
2023/03/16 02:45:44;;;;;;;8.05;3.90;;;;;;;;;;5090892;28;20040;-58
2023/03/16 02:48:13;;;;;;;11.20;4.45;;;;;;;;;;5090246;28;20040;-59
2023/03/16 02:50:45;;;;;;;9.32;3.90;;;;;;;;;;5090639;28;20533;-59
2023/03/16 02:53:11;;;;;;;10.57;5.32;;;;;;;;;;5090822;28;20384;-59
2023/03/16 02:55:37;;;;;;;8.63;4.25;;;;;;;;;;5090008;28;20089;-59
2023/03/16 02:58:03;;;;;;;5.70;3.90;;;;;;;;;;5090720;28;20432;-59
2023/03/16 03:00:29;;;;;;;7.00;4.10;;;;;;;;;;5090703;28;20113;-59
2023/03/16 03:02:55;;;;;;;7.80;3.67;;;;;;;;;;5089723;28;20044;-58
2023/03/16 03:05:21;;;;;;;8.77;4.10;;;;;;;;;;5090690;28;20071;-58
2023/03/16 03:07:47;;;;;;;6.75;3.65;;;;;;;;;;5090489;28;20040;-59
2023/03/16 03:10:13;;;;;;;9.25;3.95;;;;;;;;;;5089606;28;20040;-59
2023/03/16 03:12:39;;;;;;;8.63;3.78;;;;;;;;;;5090425;28;20044;-59
2023/03/16 03:15:05;;;;;;;10.25;4.03;;;;;;;;;;5090489;28;20032;-59
2023/03/16 03:17:31;;;;;;;14.63;4.32;;;;;;;;;;5071720;28;20502;-59
2023/03/16 03:19:58;;;;;;;7.97;4.35;;;;;;;;;;5090263;28;20113;-59
2023/03/16 03:22:25;;;;;;;8.10;4.22;;;;;;;;;;5089840;28;20399;-59
2023/03/16 03:24:51;;;;;;;9.00;3.83;;;;;;;;;;5076131;28;20056;-59
2023/03/16 03:27:17;;;;;;;7.20;3.85;;;;;;;;;;5089342;28;20128;-59
2023/03/16 03:29:44;;;;;;;7.95;3.72;;;;;;;;;;5090186;28;20040;-59
2023/03/16 03:32:10;;;;;;;6.50;3.97;;;;;;;;;;5089359;28;20050;-58
2023/03/16 03:34:37;;;;;;;8.32;3.97;;;;;;;;;;5090367;28;20043;-58
2023/03/16 03:37:03;;;;;;;7.78;3.67;;;;;;;;;;5089966;28;20046;-59
2023/03/16 03:39:29;;;;;;;7.25;3.97;;;;;;;;;;5089099;28;20123;-59
2023/03/16 03:41:55;;;;;;;7.78;3.95;;;;;;;;;;5089699;28;20534;-59
2023/03/16 03:44:21;;;;;;;7.05;3.80;;;;;;;;;;5089541;28;20105;-59
2023/03/16 03:46:48;;;;;;;5.20;3.28;;;;;;;;;;5089194;28;20044;-59
2023/03/16 03:49:14;;;;;;;6.55;3.30;;;;;;;;;;5069729;28;20040;-57
2023/03/16 03:51:40;;;;;;;7.80;4.10;;;;;;;;;;5069044;28;20047;-58
2023/03/16 03:54:07;;;;;;;9.23;3.70;;;;;;;;;;5069109;28;20037;-59
2023/03/16 03:56:33;;;;;;;9.85;3.72;;;;;;;;;;5069719;28;20076;-59
2023/03/16 03:58:59;;;;;;;8.35;3.70;;;;;;;;;;5069535;28;20079;-59
2023/03/16 04:01:25;;;;;;;6.28;3.22;;;;;;;;;;5069113;28;20041;-59
2023/03/16 04:03:51;;;;;;;8.35;3.35;;;;;;;;;;5069169;28;20136;-59
2023/03/16 04:06:17;;;;;;;11.98;3.72;;;;;;;;;;5069286;28;20119;-59
2023/03/16 04:08:43;;;;;;;7.80;3.60;;;;;;;;;;5068715;28;20436;-59
2023/03/16 04:11:10;;;;;;;5.88;3.40;;;;;;;;;;5069420;28;20047;-59
2023/03/16 04:13:36;;;;;;;8.07;3.30;;;;;;;;;;5069334;28;20063;-59
2023/03/16 04:16:03;;;;;;;10.35;3.70;;;;;;;;;;5069036;28;20048;-59
2023/03/16 04:18:29;;;;;;;6.75;3.58;;;;;;;;;;5069141;28;20398;-59
2023/03/16 04:20:55;;;;;;;7.75;3.67;;;;;;;;;;5069058;28;20047;-59
2023/03/16 04:23:23;;;;;;;6.53;3.58;;;;;;;;;;5069508;28;20052;-58
2023/03/16 04:25:50;;;;;;;6.60;3.25;;;;;;;;;;5081434;28;20047;-58
2023/03/16 04:28:16;;;;;;;5.05;3.20;;;;;;;;;;5069301;28;20505;-59
2023/03/16 04:30:42;;;;;;;7.60;3.58;;;;;;;;;;5069044;28;20036;-59
2023/03/16 04:33:08;;;;;;;7.05;3.70;;;;;;;;;;5068686;28;20047;-59
2023/03/16 04:35:34;;;;;;;5.45;3.63;;;;;;;;;;5069117;28;20059;-58
2023/03/16 04:38:01;;;;;;;9.90;3.75;;;;;;;;;;5068801;28;20051;-58
2023/03/16 04:40:29;;;;;;;6.75;3.38;;;;;;;;;;5068430;28;20438;-59
2023/03/16 04:42:55;;;;;;;6.97;3.53;;;;;;;;;;5068934;28;20490;-59
2023/03/16 04:45:21;;;;;;;9.57;3.53;;;;;;;;;;5069037;28;20105;-59
2023/03/16 04:47:48;;;;;;;8.45;4.30;;;;;;;;;;5076329;28;20371;-59
2023/03/16 04:50:14;;;;;;;9.13;3.78;;;;;;;;;;5089089;28;20090;-58
2023/03/16 04:52:40;;;;;;;7.38;3.58;;;;;;;;;;5089086;28;20071;-59
2023/03/16 04:55:06;;;;;;;6.75;3.80;;;;;;;;;;5070155;28;20044;-59
2023/03/16 04:57:33;;;;;;;8.50;3.60;;;;;;;;;;5088989;28;20051;-58
2023/03/16 04:59:59;;;;;;;6.22;3.05;;;;;;;;;;5088759;28;20044;-58
2023/03/16 05:02:25;;;;;;;8.18;3.80;;;;;;;;;;5088418;28;20043;-57
2023/03/16 05:04:51;;;;;;;5.72;3.78;;;;;;;;;;5092326;28;20291;-58
2023/03/16 05:07:18;;;;;;;5.68;4.03;;;;;;;;;;5092355;28;20058;-58
2023/03/16 05:09:44;;;;;;;7.43;3.72;;;;;;;;;;5092096;28;20116;-59
2023/03/16 05:12:10;;;;;;;8.55;3.75;;;;;;;;;;5092801;28;20525;-59
2023/03/16 05:14:36;;;;;;;7.18;3.60;;;;;;;;;;5092584;28;20032;-59
2023/03/16 05:17:05;;;;;;;9.43;3.92;;;;;;;;;;5073587;28;20047;-59
2023/03/16 05:19:31;;;;;;;5.40;3.75;;;;;;;;;;5092417;28;20048;-59
2023/03/16 05:21:57;;;;;;;4.50;3.30;;;;;;;;;;5092183;28;20124;-59
2023/03/16 05:24:23;;;;;;;8.30;3.88;;;;;;;;;;5091504;28;20048;-59
2023/03/16 05:26:49;;;;;;;8.02;4.05;;;;;;;;;;5077072;28;20105;-59
2023/03/16 05:29:15;;;;;;;8.20;4.03;;;;;;;;;;5054109;28;20413;-58
2023/03/16 05:31:41;;;;;;;7.28;3.83;;;;;;;;;;5071528;28;20045;-59
2023/03/16 05:34:07;;;;;;;8.25;3.97;;;;;;;;;;5072045;28;20037;-59
2023/03/16 05:36:35;;;;;;;7.57;3.95;;;;;;;;;;5071994;28;20422;-58
2023/03/16 05:39:01;;;;;;;6.78;3.75;;;;;;;;;;5071325;28;20487;-59
2023/03/16 05:41:27;;;;;;;6.63;3.50;;;;;;;;;;5071624;28;20375;-59
2023/03/16 05:43:53;;;;;;;8.15;4.32;;;;;;;;;;5053795;28;20054;-59
2023/03/16 05:46:19;;;;;;;6.07;4.07;;;;;;;;;;5071001;28;20425;-59
2023/03/16 05:48:45;;;;;;;11.75;3.90;;;;;;;;;;5089291;28;20044;-58
2023/03/16 05:51:13;;;;;;;5.57;4.18;;;;;;;;;;5083988;28;20482;-59
2023/03/16 05:53:39;;;;;;;9.27;3.85;;;;;;;;;;5084454;28;20036;-59
2023/03/16 05:56:05;;;;;;;5.82;3.78;;;;;;;;;;5093059;28;20124;-59
2023/03/16 05:58:32;;;;;;;6.80;4.15;;;;;;;;;;5093299;28;20089;-59
2023/03/16 06:01:01;;;;;;;9.75;3.83;;;;;;;;;;5092622;28;20119;-59
2023/03/16 06:03:27;;;;;;;8.55;4.18;;;;;;;;;;5093249;28;20131;-58
2023/03/16 06:05:53;;;;;;;6.20;4.70;;;;;;;;;;5093335;28;20043;-59
2023/03/16 06:08:19;;;;;;;9.15;3.97;;;;;;;;;;5092772;28;20359;-59
2023/03/16 06:10:47;;;;;;;8.93;3.83;;;;;;;;;;5093330;28;20548;-58
2023/03/16 06:13:13;;;;;;;5.95;3.95;;;;;;;;;;5093471;28;20043;-59
2023/03/16 06:15:39;;;;;;;5.40;3.67;;;;;;;;;;5091432;28;20401;-59
2023/03/16 06:18:05;;;;;;;9.38;4.22;;;;;;;;;;5093313;28;20431;-59
2023/03/16 06:20:31;;;;;;;7.63;3.53;;;;;;;;;;5093207;28;20063;-59
2023/03/16 06:22:57;;;;;;;8.13;4.15;;;;;;;;;;5092204;28;20470;-59
2023/03/16 06:25:23;;;;;;;8.15;3.90;;;;;;;;;;5078772;28;20085;-58
2023/03/16 06:27:49;;;;;;;9.13;4.45;;;;;;;;;;5093092;28;20614;-58
2023/03/16 06:30:15;;;;;;;5.97;4.00;;;;;;;;;;5092016;28;20040;-58
2023/03/16 06:32:44;;;;;;;8.80;4.15;;;;;;;;;;5092810;28;20048;-59
2023/03/16 06:35:10;;;;;;;9.98;3.97;;;;;;;;;;5074831;28;20039;-59
2023/03/16 06:37:36;;;;;;;6.70;4.00;;;;;;;;;;5092597;28;20040;-59
2023/03/16 06:40:03;;;;;;;8.88;4.18;;;;;;;;;;5074840;28;20404;-59
2023/03/16 06:42:29;;;;;;;10.73;4.20;;;;;;;;;;5092782;28;20381;-59
2023/03/16 06:44:55;;;;;;;8.23;3.63;;;;;;;;;;5092256;28;20115;-59
2023/03/16 06:47:21;;;;;;;7.82;4.22;;;;;;;;;;5087904;28;20076;-59
2023/03/16 06:49:50;;;;;;;5.13;3.75;;;;;;;;;;5072326;28;20067;-58
2023/03/16 06:52:16;;;;;;;8.75;3.80;;;;;;;;;;5071689;28;20032;-59
2023/03/16 06:54:42;;;;;;;6.65;3.90;;;;;;;;;;5072330;28;20051;-59
2023/03/16 06:57:08;;;;;;;7.07;4.05;;;;;;;;;;5072383;28;20127;-59
2023/03/16 06:59:34;;;;;;;5.53;3.72;;;;;;;;;;5071538;28;20071;-59
2023/03/16 07:02:00;;;;;;;7.32;3.60;;;;;;;;;;5072222;28;20056;-59
2023/03/16 07:04:26;;;;;;;6.57;3.60;;;;;;;;;;5072148;28;20071;-59
2023/03/16 07:06:52;;;;;;;5.85;3.53;;;;;;;;;;5071082;28;20143;-59
2023/03/16 07:09:18;;;;;;;6.60;4.20;;;;;;;;;;5071449;28;20467;-58
2023/03/16 07:11:44;;;;;;;6.82;3.83;;;;;;;;;;5071484;28;20410;-60
2023/03/16 07:14:10;;;;;;;8.57;4.25;;;;;;;;;;5071635;28;20040;-61
2023/03/16 07:16:37;;;;;;;8.18;3.80;;;;;;;;;;5091303;28;20044;-60
2023/03/16 07:19:03;;;;;;;5.65;3.20;;;;;;;;;;5081977;28;20036;-61
2023/03/16 07:21:31;;;;;;;6.45;3.80;;;;;;;;;;5089538;28;20044;-64
2023/03/16 07:23:57;;;;;;;6.70;3.70;;;;;;;;;;5080322;28;20089;-61
2023/03/16 07:26:23;;;;;;;7.05;3.85;;;;;;;;;;5072884;28;20079;-64
2023/03/16 07:28:49;;;;;;;8.25;4.18;;;;;;;;;;5078850;28;20039;-60
2023/03/16 07:31:15;;;;;;;6.93;3.50;;;;;;;;;;5080696;28;20048;-59
2023/03/16 07:33:41;;;;;;;6.85;3.65;;;;;;;;;;5071996;28;20079;-61
2023/03/16 07:36:09;;;;;;;6.47;3.65;;;;;;;;;;5070136;28;20040;-61
2023/03/16 07:38:35;;;;;;;9.52;3.72;;;;;;;;;;5068438;28;20048;-58
2023/03/16 07:41:01;;;;;;;6.47;3.92;;;;;;;;;;5071597;28;20040;-62
2023/03/16 07:43:28;;;;;;;8.98;3.97;;;;;;;;;;5077540;28;20038;-61
2023/03/16 07:45:54;;;;;;;6.13;3.55;;;;;;;;;;5070767;28;20531;-60
2023/03/16 07:48:20;;;;;;;6.50;4.05;;;;;;;;;;5071912;28;20040;-60
2023/03/16 07:50:47;;;;;;;5.97;3.78;;;;;;;;;;5069574;28;20040;-61
2023/03/16 07:53:14;;;;;;;6.43;3.67;;;;;;;;;;5070295;28;20032;-60
2023/03/16 07:55:41;;;;;;;7.63;4.10;;;;;;;;;;5070307;28;20048;-61
2023/03/16 07:58:09;;;;;;;5.70;3.60;;;;;;;;;;5070589;28;20410;-59
2023/03/16 08:00:35;;;;;;;6.18;3.75;;;;;;;;;;5078828;28;20063;-60
2023/03/16 08:03:01;;;;;;;7.50;4.10;;;;;;;;;;5075210;28;20089;-61
2023/03/16 08:05:28;;;;;;;8.55;4.28;;;;;;;;;;5070067;28;20044;-59
2023/03/16 08:07:56;;;;;;;7.93;3.95;;;;;;;;;;5077659;28;20044;-60
2023/03/16 08:10:22;;;;;;;6.55;3.83;;;;;;;;;;5080110;28;20486;-58
2023/03/16 08:12:48;;;;;;;7.40;4.30;;;;;;;;;;5070119;28;20043;-60
2023/03/16 08:15:14;;;;;;;10.32;4.25;;;;;;;;;;5076620;28;20482;-60
2023/03/16 08:17:40;;;;;;;9.68;4.82;;;;;;;;;;5070042;28;20123;-60
2023/03/16 08:20:09;;;;;;;7.75;4.63;;;;;;;;;;5069675;28;20048;-59
2023/03/16 08:22:35;;;;;;;6.45;3.85;;;;;;;;;;5070439;28;20534;-61
2023/03/16 08:25:06;;;;;;;7.07;4.28;;;;;;;;;;5084323;28;20580;-62
2023/03/16 08:27:32;;;;;;;9.35;4.28;;;;;;;;;;5074590;28;20047;-61
2023/03/16 08:30:03;;;;;;;8.43;4.32;;;;;;;;;;5077550;28;20044;-58
2023/03/16 08:32:29;;;;;;;8.87;5.27;;;;;;;;;;5072693;28;20037;-59
2023/03/16 08:34:56;;;;;;;7.18;4.00;;;;;;;;;;5083660;28;20450;-59
2023/03/16 08:37:23;;;;;;;8.13;4.85;;;;;;;;;;5071834;28;20052;-59
2023/03/16 08:39:53;;;;;;;7.63;4.75;;;;;;;;;;5083379;28;20177;-62
2023/03/16 08:42:19;;;;;;;6.95;4.60;;;;;;;;;;5078980;28;20120;-62
2023/03/16 08:44:49;;;;;;;11.45;4.95;;;;;;;;;;5082822;28;20036;-60
2023/03/16 08:47:16;;;;;;;11.45;4.50;;;;;;;;;;5083197;28;20091;-62
2023/03/16 08:49:43;;;;;;;9.38;4.97;;;;;;;;;;5082707;28;20600;-60
2023/03/16 08:52:09;;;;;;;7.45;4.55;;;;;;;;;;5079990;28;20131;-59
2023/03/16 08:54:36;;;;;;;8.40;4.82;;;;;;;;;;5076243;28;20394;-59
2023/03/16 08:57:02;;;;;;;7.35;4.90;;;;;;;;;;5076875;28;20052;-59
2023/03/16 08:59:28;;;;;;;7.45;4.88;;;;;;;;;;5077734;28;20457;-60
2023/03/16 09:01:54;;;;;;;7.93;5.03;;;;;;;;;;5071191;28;20063;-61
2023/03/16 09:04:20;;;;;;;10.55;4.93;;;;;;;;;;5075154;28;20470;-62
2023/03/16 09:06:46;;;;;;;7.03;4.38;;;;;;;;;;5072361;28;20143;-62
2023/03/16 09:09:13;;;;;;;10.93;5.22;;;;;;;;;;5072568;28;20044;-62
2023/03/16 09:11:39;;;;;;;8.25;4.90;;;;;;;;;;5079303;28;20597;-58
2023/03/16 09:14:05;;;;;;;9.73;5.50;;;;;;;;;;5080625;28;20076;-60
2023/03/16 09:16:31;;;;;;;14.23;5.57;;;;;;;;;;5076920;28;20048;-60
2023/03/16 09:18:58;;;;;;;9.60;5.20;;;;;;;;;;5072523;28;20704;-61
2023/03/16 09:21:24;;;;;;;8.35;5.10;;;;;;;;;;5069974;28;20044;-61
2023/03/16 09:23:51;;;;;;;8.73;5.40;;;;;;;;;;5074129;28;20044;-61
2023/03/16 09:26:19;;;;;;;9.98;5.32;;;;;;;;;;5081767;28;20177;-60
2023/03/16 09:28:45;;;;;;;7.15;4.95;;;;;;;;;;5082334;28;20036;-60
2023/03/16 09:31:18;;;;;;;10.13;5.15;;;;;;;;;;5074193;28;20044;-60
2023/03/16 09:33:45;;;;;;;11.25;5.50;;;;;;;;;;5072566;28;20068;-58
2023/03/16 09:36:12;;;;;;;10.38;4.93;;;;;;;;;;5071719;28;20163;-59
2023/03/16 09:38:38;;;;;;;9.05;4.72;;;;;;;;;;5072800;28;20064;-60
2023/03/16 09:41:24;;;;;;;8.70;4.82;;;;;;;;;;5079611;28;20044;-59
2023/03/16 09:43:51;;;;;;;8.27;5.22;;;;;;;;;;5060917;28;20139;-61
2023/03/16 09:46:31;;;;;;;12.07;5.45;;;;;;;;;;5071940;28;20045;-60
2023/03/16 09:48:58;;;;;;;8.82;5.45;;;;;;;;;;5078127;28;20040;-60
2023/03/16 09:51:44;;;;;;;9.25;5.60;;;;;;;;;;5072024;28;20458;-61
2023/03/16 09:54:31;;;;;;;8.75;5.22;;;;;;;;;;5072380;28;20072;-59
2023/03/16 09:56:57;;;;;;;12.57;6.38;;;;;;;;;;5070960;28;20040;-56
2023/03/16 09:59:24;;;;;;;13.48;5.70;;;;;;;;;;5074899;28;20068;-57
2023/03/16 10:02:07;;;;;;;8.43;5.20;;;;;;;;;;5086267;28;20390;-59
2023/03/16 10:04:36;;;;;;;12.30;5.75;;;;;;;;;;5071780;28;20451;-60
2023/03/16 10:07:15;;;;;;;11.00;5.30;;;;;;;;;;5050603;28;20429;-61
2023/03/16 10:09:59;;;;;;;10.93;5.28;;;;;;;;;;5088433;28;20036;-59
2023/03/16 10:12:30;;;;;;;10.60;5.05;;;;;;;;;;5081362;28;20128;-55
2023/03/16 10:15:04;;;;;;;12.68;5.47;;;;;;;;;;5087332;28;20650;-55
2023/03/16 10:17:48;;;;;;;8.55;5.68;;;;;;;;;;5076159;28;20051;-55
2023/03/16 10:20:16;;;;;;;10.15;4.93;;;;;;;;;;5077155;28;20040;-56
2023/03/16 10:22:44;;;;;;;9.93;5.45;;;;;;;;;;5068479;28;20060;-56
2023/03/16 10:25:13;;;;;;;9.90;5.20;;;;;;;;;;5079275;28;20156;-55
2023/03/16 10:27:44;;;;;;;8.77;5.22;;;;;;;;;;5080161;28;20040;-56
2023/03/16 10:30:31;;;;;;;7.97;5.50;;;;;;;;;;5086494;28;20127;-57
2023/03/16 10:33:02;;;;;;;7.22;5.22;;;;;;;;;;5080635;28;20082;-58
2023/03/16 10:35:28;;;;;;;9.55;5.10;;;;;;;;;;5082853;28;20176;-58
2023/03/16 10:37:56;;;;;;;9.15;4.97;;;;;;;;;;5078678;28;20044;-56
2023/03/16 10:40:25;;;;;;;12.23;5.18;;;;;;;;;;5073678;28;20055;-57
2023/03/16 10:42:51;;;;;;;10.65;5.60;;;;;;;;;;5073102;28;20135;-56
2023/03/16 10:45:27;;;;;;;8.23;4.78;;;;;;;;;;5074632;28;20074;-56
2023/03/16 10:47:53;;;;;;;10.80;5.30;;;;;;;;;;5080948;28;20047;-52
2023/03/16 10:50:23;;;;;;;10.20;5.22;;;;;;;;;;5084188;28;20032;-56
2023/03/16 10:52:52;;;;;;;7.75;5.28;;;;;;;;;;5074505;28;20051;-56
2023/03/16 10:55:29;;;;;;;8.73;4.90;;;;;;;;;;5067630;28;20076;-54
2023/03/16 10:57:56;;;;;;;6.53;4.75;;;;;;;;;;5083208;28;20044;-56
2023/03/16 11:00:25;;;;;;;8.77;4.50;;;;;;;;;;5079648;28;20147;-57
2023/03/16 11:02:55;;;;;;;7.85;5.03;;;;;;;;;;5086051;28;20078;-56
2023/03/16 11:05:27;;;;;;;7.68;4.78;;;;;;;;;;5080884;28;20121;-57
2023/03/16 11:07:53;;;;;;;9.05;4.65;;;;;;;;;;5078975;28;20074;-57
2023/03/16 11:10:39;;;;;;;9.95;5.13;;;;;;;;;;5086399;28;20441;-58
2023/03/16 11:13:10;;;;;;;11.50;5.15;;;;;;;;;;5077299;28;20089;-56
2023/03/16 11:15:39;;;;;;;10.43;5.68;;;;;;;;;;5073751;28;20779;-58
2023/03/16 11:18:07;;;;;;;8.40;4.80;;;;;;;;;;5076740;28;21401;-57
2023/03/16 11:20:34;;;;;;;8.15;4.78;;;;;;;;;;5084378;28;20052;-58
2023/03/16 11:23:01;;;;;;;8.38;4.30;;;;;;;;;;5084112;28;20425;-57
2023/03/16 11:25:47;;;;;;;7.18;4.88;;;;;;;;;;5080974;28;20101;-56
2023/03/16 11:28:24;;;;;;;10.82;4.45;;;;;;;;;;5081703;28;20048;-59
2023/03/16 11:31:07;;;;;;;5.75;4.18;;;;;;;;;;5079244;28;20036;-57
2023/03/16 11:33:33;;;;;;;5.60;4.32;;;;;;;;;;5087834;28;20377;-57
2023/03/16 11:36:08;;;;;;;7.93;4.05;;;;;;;;;;5086050;28;20036;-57
2023/03/16 11:38:47;;;;;;;7.38;4.57;;;;;;;;;;5086958;28;20043;-57
2023/03/16 11:41:17;;;;;;;6.75;4.30;;;;;;;;;;5069536;28;20051;-57
2023/03/16 11:43:52;;;;;;;7.50;4.28;;;;;;;;;;5082074;28;20047;-57
2023/03/16 11:46:21;;;;;;;8.65;4.90;;;;;;;;;;5075870;28;20032;-57
2023/03/16 11:48:53;;;;;;;8.10;4.47;;;;;;;;;;5072585;28;20041;-58
2023/03/16 11:51:26;;;;;;;8.63;4.63;;;;;;;;;;5072720;28;20040;-57
2023/03/16 11:54:06;;;;;;;8.23;4.28;;;;;;;;;;5081478;28;20464;-57
2023/03/16 11:56:34;;;;;;;8.85;4.40;;;;;;;;;;5076439;28;20041;-56
2023/03/16 11:59:02;;;;;;;10.23;4.55;;;;;;;;;;5070662;28;20585;-57
2023/03/16 12:01:38;;;;;;;8.50;4.00;;;;;;;;;;5070128;28;20044;-56
2023/03/16 12:04:23;;;;;;;6.68;4.20;;;;;;;;;;5077934;28;20076;-57
2023/03/16 12:07:01;;;;;;;10.88;4.45;;;;;;;;;;5075100;28;20076;-57
2023/03/16 12:09:36;;;;;;;7.25;3.53;;;;;;;;;;5070235;28;20119;-57
2023/03/16 12:12:03;;;;;;;6.70;3.60;;;;;;;;;;5073205;28;20088;-57
2023/03/16 12:14:34;;;;;;;5.35;3.78;;;;;;;;;;5086052;28;20062;-54
2023/03/16 12:17:03;;;;;;;6.23;3.73;;;;;;;;;;5086189;28;20044;-55
2023/03/16 12:19:45;;;;;;;10.20;3.90;;;;;;;;;;5084421;28;20054;-56
2023/03/16 12:22:16;;;;;;;6.22;3.55;;;;;;;;;;5071810;28;20060;-55
2023/03/16 12:24:43;;;;;;;5.35;3.05;;;;;;;;;;5077689;28;20058;-56
2023/03/16 12:27:22;;;;;;;6.25;3.45;;;;;;;;;;5069439;28;20501;-57
2023/03/16 12:29:48;;;;;;;5.53;3.47;;;;;;;;;;5085366;28;20040;-56
2023/03/16 12:32:17;;;;;;;6.57;3.35;;;;;;;;;;5073446;28;20040;-58
2023/03/16 12:34:49;;;;;;;4.85;3.33;;;;;;;;;;5076974;28;20043;-56
2023/03/16 12:37:27;;;;;;;5.27;3.33;;;;;;;;;;5081263;28;20075;-59
2023/03/16 12:40:06;;;;;;;6.60;3.20;;;;;;;;;;5082948;28;20059;-54
2023/03/16 12:42:51;;;;;;;7.40;3.60;;;;;;;;;;5083278;28;20129;-57
2023/03/16 12:45:17;;;;;;;5.25;3.30;;;;;;;;;;5080892;28;20097;-57
2023/03/16 12:47:51;;;;;;;5.53;3.10;;;;;;;;;;5082612;28;20032;-58
2023/03/16 12:50:18;;;;;;;5.28;3.15;;;;;;;;;;5069612;28;20117;-56
2023/03/16 12:52:46;;;;;;;6.63;3.60;;;;;;;;;;5084486;28;20093;-57
2023/03/16 12:55:16;;;;;;;5.82;4.00;;;;;;;;;;5088582;28;20075;-56
2023/03/16 12:57:43;;;;;;;5.72;3.70;;;;;;;;;;5070974;28;20106;-58
2023/03/16 13:00:10;;;;;;;6.10;3.30;;;;;;;;;;5083513;28;20036;-57
2023/03/16 13:02:38;;;;;;;5.90;3.55;;;;;;;;;;5077459;28;20051;-59
2023/03/16 13:05:04;;;;;;;6.10;3.35;;;;;;;;;;5081792;28;20485;-55
2023/03/16 13:07:31;;;;;;;6.85;3.20;;;;;;;;;;5082019;28;20055;-54
2023/03/16 13:09:57;;;;;;;5.32;3.53;;;;;;;;;;5084422;28;20051;-57
2023/03/16 13:12:37;;;;;;;6.28;3.38;;;;;;;;;;5085156;28;20036;-58
2023/03/16 13:15:19;;;;;;;6.03;3.33;;;;;;;;;;5084264;28;20036;-58
2023/03/16 13:17:46;;;;;;;6.05;3.42;;;;;;;;;;5076164;28;20374;-57
2023/03/16 13:20:12;;;;;;;4.90;2.88;;;;;;;;;;5083437;28;20102;-58
2023/03/16 13:22:44;;;;;;;4.47;3.13;;;;;;;;;;5084120;28;20059;-57
2023/03/16 13:25:24;;;;;;;6.47;3.20;;;;;;;;;;5082703;28;20125;-56
2023/03/16 13:27:54;;;;;;;3.85;2.97;;;;;;;;;;5088436;28;20044;-57
2023/03/16 13:30:21;;;;;;;5.32;3.15;;;;;;;;;;5081055;28;20044;-57
2023/03/16 13:32:48;;;;;;;7.13;3.35;;;;;;;;;;5081762;28;20040;-59
2023/03/16 13:35:15;;;;;;;5.63;3.40;;;;;;;;;;5087595;28;20040;-59
2023/03/16 13:37:42;;;;;;;5.82;3.20;;;;;;;;;;5082352;28;20119;-57
2023/03/16 13:40:28;;;;;;;7.25;2.95;;;;;;;;;;5083906;28;20048;-54
2023/03/16 13:42:56;;;;;;;6.20;2.90;;;;;;;;;;5091046;28;20086;-54
2023/03/16 13:45:24;;;;;;;6.30;2.85;;;;;;;;;;5083401;28;20133;-56
2023/03/16 13:47:50;;;;;;;4.53;2.90;;;;;;;;;;5083477;28;20547;-57
2023/03/16 13:50:17;;;;;;;3.95;2.90;;;;;;;;;;5081599;28;20055;-54
2023/03/16 13:52:57;;;;;;;6.18;3.33;;;;;;;;;;5079816;28;20036;-57
2023/03/16 13:55:26;;;;;;;6.35;3.15;;;;;;;;;;5086761;28;20041;-58
2023/03/16 13:57:53;;;;;;;5.28;2.95;;;;;;;;;;5073717;28;20037;-59
2023/03/16 14:00:39;;;;;;;4.10;2.65;;;;;;;;;;5078603;28;20052;-55
2023/03/16 14:03:15;;;;;;;7.32;2.83;;;;;;;;;;5072168;28;20110;-57
2023/03/16 14:05:41;;;;;;;6.50;3.17;;;;;;;;;;5080122;28;20123;-57
2023/03/16 14:08:21;;;;;;;4.72;2.80;;;;;;;;;;5081194;28;20090;-59
2023/03/16 14:10:47;;;;;;;8.20;3.00;;;;;;;;;;5072376;28;20039;-58
2023/03/16 14:13:42;;;;;;;5.25;2.78;;;;;;;;;;5091287;28;20050;-58
2023/03/16 14:16:14;;;;;;;4.43;3.00;;;;;;;;;;5057991;28;20051;-58
2023/03/16 14:18:44;;;;;;;4.20;2.60;;;;;;;;;;5090489;28;20032;-57
2023/03/16 14:21:27;;;;;;;6.18;3.30;;;;;;;;;;5090946;28;20043;-59
2023/03/16 14:23:56;;;;;;;7.80;3.03;;;;;;;;;;5079539;28;20118;-60
2023/03/16 14:26:22;;;;;;;5.95;3.13;;;;;;;;;;5089948;28;20371;-62
2023/03/16 14:29:01;;;;;;;5.75;3.17;;;;;;;;;;5092450;28;20077;-62
2023/03/16 14:31:32;;;;;;;7.13;3.80;;;;;;;;;;5091672;28;20032;-62
2023/03/16 14:34:03;;;;;;;5.57;3.20;;;;;;;;;;5074582;28;20044;-62
2023/03/16 14:36:38;;;;;;;4.43;3.10;;;;;;;;;;5070754;28;20037;-62
2023/03/16 14:39:11;;;;;;;6.72;3.10;;;;;;;;;;5071467;28;20048;-62
2023/03/16 14:41:38;;;;;;;6.63;3.35;;;;;;;;;;5054018;28;20048;-62
2023/03/16 14:44:05;;;;;;;7.63;3.28;;;;;;;;;;5072147;28;20123;-62
2023/03/16 14:46:39;;;;;;;5.53;3.42;;;;;;;;;;5071449;28;20142;-62
2023/03/16 14:49:09;;;;;;;5.22;3.15;;;;;;;;;;5072986;28;20083;-60